Time;durP1;ratioP1;P1;durP2;ratioP2;P2;SDS_P1;SDS_P2;PMS_P1;PMS_P2;Temp;Humidity;BMP_temperature;BMP_pressure;BME280_temperature;BME280_humidity;BME280_pressure;Samples;Min_cycle;Max_cycle;Signal;HPM_P1;HPM_P2
2022/03/28 00:01:23;;;;;;;18.67;6.75;;;5.60;99.90;;;;;;5019720;28;88586;-36
2022/03/28 00:03:49;;;;;;;38.00;8.88;;;5.60;99.90;;;;;;5020118;27;91129;-33
2022/03/28 00:06:14;;;;;;;14.88;7.72;;;5.60;99.90;;;;;;5018706;28;90009;-34
2022/03/28 00:08:40;;;;;;;35.78;9.85;;;5.70;99.90;;;;;;5018244;28;89585;-35
2022/03/28 00:11:08;;;;;;;19.48;8.20;;;5.70;99.90;;;;;;5019716;28;88153;-32
2022/03/28 00:13:34;;;;;;;;;;;5.70;99.90;;;;;;5020063;27;90005;-33
2022/03/28 00:16:00;;;;;;;18.05;8.30;;;5.70;99.90;;;;;;5020618;28;89439;-37
2022/03/28 00:18:26;;;;;;;7.65;6.60;;;5.70;99.90;;;;;;5048118;22;89101;-35
2022/03/28 00:20:53;;;;;;;14.48;6.38;;;5.60;99.90;;;;;;4998561;28;89670;-37
2022/03/28 00:23:22;;;;;;;21.58;6.22;;;5.50;99.90;;;;;;4998605;28;89819;-37
2022/03/28 00:25:49;;;;;;;28.23;8.48;;;5.40;99.90;;;;;;4998640;28;90374;-37
2022/03/28 00:28:15;;;;;;;25.90;8.50;;;5.40;99.90;;;;;;4999236;28;89259;-33
2022/03/28 00:30:41;;;;;;;12.40;9.38;;;5.40;99.90;;;;;;4999232;28;89154;-38
2022/03/28 00:33:07;;;;;;;18.95;7.63;;;5.50;99.90;;;;;;4999465;28;90325;-33
2022/03/28 00:35:35;;;;;;;40.55;9.52;;;5.40;99.90;;;;;;4998790;28;90189;-34
2022/03/28 00:38:02;;;;;;;14.30;8.33;;;5.40;99.90;;;;;;4998998;28;89734;-34
2022/03/28 00:40:31;;;;;;;40.33;10.45;;;5.50;99.90;;;;;;4999002;28;90134;-38
2022/03/28 00:43:03;;;;;;;35.63;10.45;;;5.50;99.90;;;;;;4998746;28;89584;-35
2022/03/28 00:45:31;;;;;;;58.05;11.75;;;5.50;99.90;;;;;;4997013;28;89521;-35
2022/03/28 00:47:57;;;;;;;31.77;10.77;;;5.50;99.90;;;;;;4997577;28;90473;-36
2022/03/28 00:50:23;;;;;;;34.72;10.93;;;5.50;99.90;;;;;;4980874;28;89147;-34
2022/03/28 00:52:49;;;;;;;53.25;13.13;;;5.50;99.90;;;;;;4997496;28;90359;-37
2022/03/28 00:55:15;;;;;;;34.55;12.20;;;5.50;99.90;;;;;;4998475;28;89694;-38
2022/03/28 00:57:41;;;;;;;19.58;11.00;;;5.50;99.90;;;;;;4997429;28;89039;-36
2022/03/28 01:00:09;;;;;;;30.67;12.68;;;5.50;99.90;;;;;;4997699;28;89112;-35
2022/03/28 01:02:35;;;;;;;29.10;13.75;;;5.50;99.90;;;;;;4998110;28;89149;-37
2022/03/28 01:05:01;;;;;;;14.80;10.45;;;5.50;99.90;;;;;;4997918;28;90644;-32
2022/03/28 01:07:27;;;;;;;22.23;12.23;;;5.60;99.90;;;;;;4997449;28;89119;-34
2022/03/28 01:09:55;;;;;;;50.22;15.60;;;5.60;99.90;;;;;;4997333;28;89356;-34
2022/03/28 01:12:22;;;;;;;;;;;5.60;99.90;;;;;;4999143;28;90287;-35
2022/03/28 01:14:49;;;;;;;21.50;12.73;;;5.60;99.90;;;;;;4999363;28;89232;-34
2022/03/28 01:19:59;;;;;;;17.90;13.68;;;5.60;99.90;;;;;;5001327;28;89124;-33
2022/03/28 01:22:25;;;;;;;55.63;15.95;;;5.60;99.90;;;;;;5000906;28;88952;-36
2022/03/28 01:24:50;;;;;;;49.90;14.63;;;5.60;99.90;;;;;;5001332;28;90015;-34
2022/03/28 01:27:19;;;;;;;45.65;15.63;;;5.50;99.90;;;;;;5001429;28;89217;-37
2022/03/28 01:29:44;;;;;;;31.20;13.55;;;5.60;99.90;;;;;;5000625;28;89017;-32
2022/03/28 01:32:11;;;;;;;48.60;16.67;;;5.50;99.90;;;;;;5001400;28;90273;-36
2022/03/28 01:34:37;;;;;;;35.47;16.15;;;5.60;99.90;;;;;;5000280;28;90284;-36
2022/03/28 01:37:03;;;;;;;18.85;13.48;;;5.60;99.90;;;;;;5000305;28;90510;-35
2022/03/28 01:39:28;;;;;;;23.05;14.75;;;5.60;99.90;;;;;;5001509;28;88232;-36
2022/03/28 01:41:54;;;;;;;54.33;15.27;;;5.60;99.90;;;;;;4999976;28;90160;-37
2022/03/28 01:44:20;;;;;;;63.88;16.85;;;5.50;99.90;;;;;;5000895;28;89631;-34
2022/03/28 01:46:47;;;;;;;73.22;17.98;;;5.50;99.90;;;;;;5000589;28;89983;-34
2022/03/28 01:49:14;;;;;;;96.25;19.75;;;5.40;99.90;;;;;;5000890;28;90053;-33
2022/03/28 01:51:40;;;;;;;181.73;23.92;;;5.40;99.90;;;;;;5000671;28;89148;-38
2022/03/28 01:54:06;;;;;;;150.52;20.20;;;5.40;99.90;;;;;;5000746;28;90158;-34
2022/03/28 01:56:36;;;;;;;133.93;22.17;;;5.40;99.90;;;;;;5000546;28;89085;-34
2022/03/28 01:59:03;;;;;;;105.63;19.42;;;5.40;99.90;;;;;;4999791;28;90090;-35
2022/03/28 02:01:29;;;;;;;85.97;17.73;;;5.40;99.90;;;;;;5000470;28;90463;-37
2022/03/28 02:03:55;;;;;;;49.28;18.05;;;5.40;99.90;;;;;;5000751;28;90781;-35
2022/03/28 02:06:21;;;;;;;95.82;20.40;;;5.40;99.90;;;;;;4999866;28;89609;-35
2022/03/28 02:08:46;;;;;;;39.55;16.52;;;5.50;99.90;;;;;;5000418;28;88720;-36
2022/03/28 02:11:12;;;;;;;119.55;20.98;;;5.50;99.90;;;;;;5000361;28;90308;-37
2022/03/28 02:13:38;;;;;;;113.85;19.65;;;5.50;99.90;;;;;;5000756;28;90157;-33
2022/03/28 02:16:04;;;;;;;42.13;16.25;;;5.50;99.90;;;;;;5000342;28;89656;-34
2022/03/28 02:18:30;;;;;;;90.63;21.85;;;5.50;99.90;;;;;;4999772;28;88459;-35
2022/03/28 02:20:55;;;;;;;136.02;22.45;;;5.50;99.90;;;;;;5000550;28;89534;-32
2022/03/28 02:23:22;;;;;;;215.02;31.40;;;5.50;99.90;;;;;;4999573;28;90658;-34
2022/03/28 02:25:47;;;;;;;152.00;25.60;;;5.50;99.90;;;;;;5000516;28;90472;-38
2022/03/28 02:28:13;;;;;;;90.20;21.27;;;5.50;99.90;;;;;;5000328;28;89190;-35
2022/03/28 02:30:39;;;;;;;57.10;18.75;;;5.50;99.90;;;;;;4999536;28;90626;-38
2022/03/28 02:33:05;;;;;;;42.95;17.33;;;5.50;99.90;;;;;;5000290;28;89591;-33
2022/03/28 02:35:31;;;;;;;101.10;20.90;;;5.50;99.90;;;;;;4999597;28;90274;-34
2022/03/28 02:38:01;;;;;;;133.77;22.23;;;5.60;99.90;;;;;;5000335;28;88711;-33
2022/03/28 02:40:31;;;;;;;94.82;19.23;;;5.50;99.90;;;;;;5000071;28;88835;-34
2022/03/28 02:42:59;;;;;;;113.50;18.40;;;5.50;99.90;;;;;;4999820;28;90339;-34
2022/03/28 02:45:33;;;;;;;152.02;22.38;;;5.40;99.90;;;;;;5000132;28;89848;-35
2022/03/28 02:47:59;;;;;;;146.40;21.58;;;5.40;99.90;;;;;;4998724;28;89383;-37
2022/03/28 02:50:25;;;;;;;168.90;26.58;;;5.30;99.90;;;;;;5000482;28;90011;-33
2022/03/28 02:52:51;;;;;;;90.40;16.63;;;5.30;99.90;;;;;;4999280;28;89495;-33
2022/03/28 02:55:17;;;;;;;93.40;18.35;;;5.30;99.90;;;;;;4998924;28;89998;-33
2022/03/28 02:57:42;;;;;;;152.65;23.83;;;5.30;99.90;;;;;;5000115;28;87963;-35
2022/03/28 03:00:10;;;;;;;158.18;23.95;;;5.30;99.90;;;;;;4999305;28;90489;-34
2022/03/28 03:02:39;;;;;;;176.80;29.75;;;5.30;99.90;;;;;;4999217;28;89529;-37
2022/03/28 03:05:06;;;;;;;174.75;25.67;;;5.40;99.90;;;;;;4999768;28;89621;-38
2022/03/28 03:07:32;;;;;;;75.68;19.88;;;5.30;99.90;;;;;;4999938;28;88608;-34
2022/03/28 03:09:58;;;;;;;162.50;27.13;;;5.30;99.90;;;;;;4998619;28;89947;-35
2022/03/28 03:12:23;;;;;;;56.10;18.58;;;5.40;99.90;;;;;;4998936;28;90317;-37
2022/03/28 03:14:50;;;;;;;140.82;23.55;;;5.40;99.90;;;;;;4999021;28;90413;-34
2022/03/28 03:17:15;;;;;;;109.32;22.05;;;5.30;99.90;;;;;;4999450;28;88210;-34
2022/03/28 03:19:41;;;;;;;157.43;24.55;;;5.30;99.90;;;;;;4998537;28;90375;-35
2022/03/28 03:22:07;;;;;;;68.35;19.77;;;5.30;99.90;;;;;;4998968;28;89388;-36
2022/03/28 03:24:34;;;;;;;218.65;34.08;;;5.30;99.90;;;;;;4999530;28;89286;-35
2022/03/28 03:27:00;;;;;;;144.52;26.77;;;5.40;99.90;;;;;;4999391;28;88301;-34
2022/03/28 03:29:26;;;;;;;142.82;24.98;;;5.40;99.90;;;;;;4999329;28;90366;-37
2022/03/28 03:31:52;;;;;;;72.47;20.92;;;5.40;99.90;;;;;;4999583;28;89745;-34
2022/03/28 03:34:18;;;;;;;113.45;26.77;;;5.40;99.90;;;;;;4998995;28;89361;-34
2022/03/28 03:36:44;;;;;;;97.80;20.63;;;5.40;99.90;;;;;;4998506;28;89499;-34
2022/03/28 03:39:10;;;;;;;126.35;24.63;;;5.40;99.90;;;;;;4999286;28;90739;-34
2022/03/28 03:41:35;;;;;;;126.45;25.10;;;5.40;99.90;;;;;;4997718;28;88863;-34
2022/03/28 03:44:01;;;;;;;103.43;25.13;;;5.40;99.90;;;;;;4999149;28;89936;-34
2022/03/28 03:46:27;;;;;;;83.30;20.38;;;5.50;99.90;;;;;;4998840;28;88278;-36
2022/03/28 03:48:52;;;;;;;126.88;28.38;;;5.50;99.90;;;;;;4998453;28;90076;-33
2022/03/28 03:51:18;;;;;;;77.35;24.65;;;5.50;99.90;;;;;;4999500;28;89894;-34
2022/03/28 03:53:44;;;;;;;44.10;22.25;;;5.50;99.90;;;;;;4998476;28;90242;-33
2022/03/28 03:56:10;;;;;;;137.73;28.33;;;5.50;99.90;;;;;;4999427;28;88157;-34
2022/03/28 03:58:36;;;;;;;65.15;20.38;;;5.50;99.90;;;;;;4998036;28;90199;-35
2022/03/28 04:01:01;;;;;;;62.70;21.00;;;5.50;99.90;;;;;;4998708;28;90587;-36
2022/03/28 04:03:27;;;;;;;86.32;18.85;;;5.50;99.90;;;;;;4998962;28;90565;-34
2022/03/28 04:05:53;;;;;;;32.22;17.80;;;5.40;99.90;;;;;;4980768;28;89371;-35
2022/03/28 04:08:19;;;;;;;34.97;17.80;;;5.50;99.90;;;;;;4999363;28;90182;-36
2022/03/28 04:10:44;;;;;;;65.03;18.38;;;5.50;99.90;;;;;;4998324;28;89419;-35
2022/03/28 04:13:10;;;;;;;68.50;20.20;;;5.40;99.90;;;;;;4998960;28;90190;-37
2022/03/28 04:15:36;;;;;;;67.10;19.45;;;5.40;99.90;;;;;;4998900;28;89128;-35
2022/03/28 04:18:02;;;;;;;56.33;19.55;;;5.30;99.90;;;;;;4998229;28;90265;-34
2022/03/28 04:20:29;;;;;;;95.65;24.05;;;5.40;99.90;;;;;;4998636;28;89836;-34
2022/03/28 04:22:55;;;;;;;71.35;19.83;;;5.30;99.90;;;;;;4998235;28;89898;-35
2022/03/28 04:25:21;;;;;;;82.95;23.98;;;5.30;99.90;;;;;;4997455;28;88692;-35
2022/03/28 04:27:47;;;;;;;70.80;20.60;;;5.30;99.90;;;;;;4998909;28;90315;-35
2022/03/28 04:30:13;;;;;;;153.05;25.90;;;5.30;99.90;;;;;;4998403;28;89180;-36
2022/03/28 04:32:39;;;;;;;80.80;23.48;;;5.40;99.90;;;;;;4998455;28;90060;-38
2022/03/28 04:35:06;;;;;;;87.05;23.13;;;5.30;99.90;;;;;;4998525;28;88781;-34
2022/03/28 04:37:33;;;;;;;61.95;21.13;;;5.30;99.90;;;;;;4997896;28;91413;-33
2022/03/28 04:39:59;;;;;;;149.80;26.23;;;5.40;99.90;;;;;;4997955;28;90032;-34
2022/03/28 04:42:24;;;;;;;57.35;22.25;;;5.30;99.90;;;;;;4998786;28;89748;-34
2022/03/28 04:44:50;;;;;;;58.95;24.45;;;5.40;99.90;;;;;;4997872;28;88819;-37
2022/03/28 04:47:15;;;;;;;30.90;21.65;;;5.30;99.90;;;;;;4997984;28;90376;-36
2022/03/28 04:49:41;;;;;;;38.95;23.35;;;5.30;99.90;;;;;;4997187;28;90682;-36
2022/03/28 04:52:07;;;;;;;27.05;20.88;;;5.40;99.90;;;;;;4998283;28;90591;-34
2022/03/28 04:54:33;;;;;;;41.05;25.60;;;5.40;99.90;;;;;;5001340;28;87751;-34
2022/03/28 04:56:58;;;;;;;33.05;21.63;;;5.30;99.90;;;;;;5001637;28;90246;-36
2022/03/28 04:59:24;;;;;;;33.95;21.67;;;5.40;99.90;;;;;;5001344;28;90067;-33
2022/03/28 05:01:49;;;;;;;28.30;21.50;;;5.40;99.90;;;;;;5001358;28;89951;-34
2022/03/28 05:04:15;;;;;;;31.45;22.02;;;5.40;99.90;;;;;;5002313;28;88112;-34
2022/03/28 05:06:41;;;;;;;29.33;20.33;;;5.30;99.90;;;;;;5001012;28;90427;-34
2022/03/28 05:09:06;;;;;;;28.45;22.15;;;5.30;99.90;;;;;;5001316;28;89977;-34
2022/03/28 05:11:32;;;;;;;26.98;19.95;;;5.20;99.90;;;;;;5001435;28;90014;-34
2022/03/28 05:14:00;;;;;;;19.98;15.57;;;5.20;99.90;;;;;;5000716;28;89196;-34
2022/03/28 05:16:26;;;;;;;26.38;20.15;;;5.30;99.90;;;;;;5002416;28;90359;-34
2022/03/28 05:18:51;;;;;;;31.05;19.85;;;5.20;99.90;;;;;;5000480;28;89617;-32
2022/03/28 05:21:17;;;;;;;27.92;18.95;;;5.20;99.90;;;;;;5000835;28;89598;-36
2022/03/28 05:23:43;;;;;;;24.95;19.00;;;5.20;99.90;;;;;;5001067;28;90059;-35
2022/03/28 05:26:09;;;;;;;27.42;19.25;;;5.20;99.90;;;;;;5000734;28;90254;-37
2022/03/28 05:28:34;;;;;;;22.67;18.45;;;5.10;99.90;;;;;;5001232;28;89445;-37
2022/03/28 05:31:00;;;;;;;21.20;16.58;;;5.20;99.90;;;;;;5001085;28;89599;-36
2022/03/28 05:33:26;;;;;;;25.33;19.27;;;5.20;99.90;;;;;;5000987;28;89312;-35
2022/03/28 05:35:52;;;;;;;25.33;19.60;;;5.20;99.90;;;;;;5000849;28;91605;-34
2022/03/28 05:38:18;;;;;;;25.58;19.38;;;5.20;99.90;;;;;;5000631;28;90545;-34
2022/03/28 05:40:44;;;;;;;28.90;20.55;;;5.20;99.90;;;;;;5000707;28;90265;-33
2022/03/28 05:43:10;;;;;;;35.42;26.48;;;5.20;99.90;;;;;;5001184;28;89213;-37
2022/03/28 05:45:36;;;;;;;28.92;17.52;;;5.20;99.90;;;;;;4999845;28;90303;-35
2022/03/28 05:48:02;;;;;;;27.20;20.20;;;5.20;99.90;;;;;;5001060;28;88778;-33
2022/03/28 05:50:27;;;;;;;22.00;18.77;;;5.20;99.90;;;;;;4982656;28;89275;-33
2022/03/28 05:52:54;;;;;;;28.20;21.05;;;5.20;99.90;;;;;;5001512;28;89832;-37
2022/03/28 05:55:20;;;;;;;27.15;20.45;;;5.10;99.90;;;;;;5000613;28;90229;-36
2022/03/28 05:57:46;;;;;;;25.52;19.70;;;5.10;99.90;;;;;;5000389;28;90717;-37
2022/03/28 06:00:13;;;;;;;26.38;19.40;;;5.10;99.90;;;;;;5000468;28;89433;-36
2022/03/28 06:02:39;;;;;;;29.33;20.38;;;5.20;99.90;;;;;;4999952;28;88603;-34
2022/03/28 06:05:05;;;;;;;26.42;19.95;;;5.20;99.90;;;;;;4952387;27;96459;-38
2022/03/28 06:07:32;;;;;;;26.65;20.25;;;5.20;99.90;;;;;;5000600;28;89867;-34
2022/03/28 06:09:57;;;;;;;30.85;18.60;;;5.20;99.90;;;;;;4999294;28;89585;-33
2022/03/28 06:12:23;;;;;;;27.60;21.70;;;5.10;99.90;;;;;;5000617;28;89338;-37
2022/03/28 06:14:49;;;;;;;31.15;20.02;;;5.10;99.90;;;;;;5000255;28;90218;-33
2022/03/28 06:17:22;;;;;;;25.40;19.70;;;5.10;99.90;;;;;;5000491;28;90023;-35
2022/03/28 06:19:47;;;;;;;25.48;18.45;;;5.20;99.90;;;;;;4999662;28;88984;-33
2022/03/28 06:22:13;;;;;;;28.55;20.48;;;5.20;99.90;;;;;;4999804;28;89299;-34
2022/03/28 06:24:38;;;;;;;29.88;20.02;;;5.20;99.90;;;;;;4998456;28;89063;-33
2022/03/28 06:27:04;;;;;;;27.77;20.20;;;5.20;99.90;;;;;;4997572;28;90710;-34
2022/03/28 06:29:30;;;;;;;33.80;20.35;;;5.30;99.90;;;;;;4998855;28;90519;-35
2022/03/28 06:31:55;;;;;;;28.20;19.58;;;5.40;99.90;;;;;;4998132;28;89749;-34
2022/03/28 06:34:21;;;;;;;28.08;19.92;;;5.40;99.90;;;;;;4998486;28;88983;-33
2022/03/28 06:36:47;;;;;;;28.35;20.52;;;5.40;99.90;;;;;;4997958;28;89987;-33
2022/03/28 06:39:13;;;;;;;28.23;21.02;;;5.30;99.90;;;;;;4997884;28;89556;-37
2022/03/28 06:41:39;;;;;;;28.88;20.40;;;5.30;99.90;;;;;;4998700;28;87638;-35
2022/03/28 06:44:07;;;;;;;22.08;18.90;;;5.30;99.90;;;;;;4997470;28;90142;-33
2022/03/28 06:46:34;;;;;;;27.23;20.63;;;5.30;99.90;;;;;;4994863;28;89542;-32
2022/03/28 06:48:59;;;;;;;35.92;21.38;;;5.40;99.90;;;;;;4977538;28;91134;-34
2022/03/28 06:51:25;;;;;;;28.08;24.48;;;5.40;99.90;;;;;;4977503;28;90254;-37
2022/03/28 06:53:51;;;;;;;29.63;20.27;;;5.40;99.90;;;;;;4977682;28;90252;-36
2022/03/28 06:56:17;;;;;;;32.80;22.13;;;5.40;99.90;;;;;;4977745;28;89565;-33
2022/03/28 06:58:43;;;;;;;31.50;21.77;;;5.40;99.90;;;;;;4977131;28;89210;-35
2022/03/28 07:01:10;;;;;;;24.13;17.58;;;5.50;99.90;;;;;;4977728;28;89026;-32
2022/03/28 07:03:37;;;;;;;23.77;18.33;;;5.50;99.90;;;;;;4977693;28;90601;-34
2022/03/28 07:06:03;;;;;;;22.80;18.48;;;5.40;99.90;;;;;;4976854;28;88866;-37
2022/03/28 07:08:29;;;;;;;26.38;17.15;;;5.40;99.90;;;;;;4978237;28;89556;-33
2022/03/28 07:10:58;;;;;;;27.15;16.48;;;5.40;99.90;;;;;;4978811;28;88036;-34
2022/03/28 07:13:23;;;;;;;23.00;16.10;;;5.40;99.90;;;;;;4977681;28;89307;-35
2022/03/28 07:15:49;;;;;;;21.77;16.63;;;5.40;99.90;;;;;;4976125;28;91239;-36
2022/03/28 07:18:15;;;;;;;27.75;17.75;;;5.50;99.90;;;;;;4976563;28;91178;-35
2022/03/28 07:20:43;;;;;;;26.20;17.88;;;5.40;99.90;;;;;;4976690;28;89528;-36
2022/03/28 07:23:10;;;;;;;21.45;17.35;;;5.40;99.90;;;;;;4977315;28;90077;-34
2022/03/28 07:25:36;;;;;;;28.73;16.65;;;5.40;99.90;;;;;;4976819;28;89567;-36
2022/03/28 07:28:10;;;;;;;24.52;18.90;;;5.40;99.90;;;;;;4977213;28;89404;-36
2022/03/28 07:30:36;;;;;;;18.10;13.55;;;5.50;99.90;;;;;;4977511;28;90286;-34
2022/03/28 07:33:03;;;;;;;20.58;15.45;;;5.50;99.90;;;;;;4977378;28;90439;-35
2022/03/28 07:35:35;;;;;;;22.60;13.95;;;5.60;99.90;;;;;;4976854;28;89858;-36
2022/03/28 07:38:02;;;;;;;15.27;11.10;;;5.50;99.90;;;;;;4977055;28;89821;-33
2022/03/28 07:40:28;;;;;;;16.25;8.82;;;5.50;99.90;;;;;;4976211;28;90467;-38
2022/03/28 07:42:54;;;;;;;14.30;10.23;;;5.50;99.90;;;;;;4977962;28;90139;-36
2022/03/28 07:45:20;;;;;;;13.45;10.00;;;5.50;99.90;;;;;;4976969;28;90162;-35
2022/03/28 07:47:46;;;;;;;12.88;9.90;;;5.60;99.90;;;;;;4976719;28;89786;-34
2022/03/28 07:50:12;;;;;;;14.35;9.65;;;5.50;99.90;;;;;;4977975;28;89194;-33
2022/03/28 07:52:39;;;;;;;11.10;8.15;;;5.60;99.90;;;;;;4977122;28;90538;-33
2022/03/28 07:55:06;;;;;;;14.88;11.13;;;5.60;99.90;;;;;;4977995;28;89466;-38
2022/03/28 07:57:33;;;;;;;12.88;9.73;;;5.50;99.90;;;;;;4959270;28;90436;-33
2022/03/28 07:59:59;;;;;;;11.75;8.20;;;5.60;99.90;;;;;;4977480;28;89802;-36
2022/03/28 08:02:24;;;;;;;12.32;9.20;;;5.50;99.90;;;;;;4976774;28;90244;-35
2022/03/28 08:04:50;;;;;;;10.57;8.15;;;5.60;99.90;;;;;;4958839;28;90648;-36
2022/03/28 08:07:16;;;;;;;13.98;9.18;;;5.70;99.90;;;;;;4976802;28;93918;-36
2022/03/28 08:09:42;;;;;;;13.48;9.65;;;5.60;99.90;;;;;;4977794;28;89229;-35
2022/03/28 08:12:09;;;;;;;12.55;10.18;;;5.40;99.90;;;;;;4975998;28;90490;-36
2022/03/28 08:14:35;;;;;;;16.42;11.27;;;5.50;99.90;;;;;;4976125;28;89986;-36
2022/03/28 08:17:01;;;;;;;16.75;11.75;;;5.60;99.90;;;;;;4977420;28;89668;-33
2022/03/28 08:19:27;;;;;;;12.80;8.48;;;5.70;99.90;;;;;;4976487;28;88462;-36
2022/03/28 08:21:53;;;;;;;17.67;11.40;;;5.60;99.90;;;;;;4977496;28;90248;-34
2022/03/28 08:24:19;;;;;;;13.77;10.02;;;5.70;99.90;;;;;;4976439;28;89887;-35
2022/03/28 08:26:46;;;;;;;12.00;8.95;;;5.70;99.90;;;;;;4976889;28;89777;-35
2022/03/28 08:29:12;;;;;;;11.88;10.07;;;5.70;99.90;;;;;;4980469;28;90323;-34
2022/03/28 08:31:38;;;;;;;14.82;10.85;;;5.80;99.90;;;;;;4980259;28;90675;-36
2022/03/28 08:34:04;;;;;;;15.25;11.00;;;5.80;99.90;;;;;;4979773;28;89563;-39
2022/03/28 08:36:29;;;;;;;18.08;9.82;;;5.80;99.90;;;;;;4979793;28;89965;-35
2022/03/28 08:38:55;;;;;;;14.30;10.35;;;5.70;99.90;;;;;;4980198;28;89723;-34
2022/03/28 08:41:25;;;;;;;9.77;8.32;;;5.80;99.90;;;;;;4979974;28;91308;-34
2022/03/28 08:43:50;;;;;;;11.00;9.63;;;5.80;99.90;;;;;;4980977;28;91343;-39
2022/03/28 08:46:17;;;;;;;14.75;9.15;;;5.80;99.90;;;;;;4980244;28;89724;-36
2022/03/28 08:48:44;;;;;;;12.27;9.85;;;5.80;99.90;;;;;;4980545;28;89044;-36
2022/03/28 08:51:12;;;;;;;8.68;7.47;;;5.80;99.90;;;;;;4980151;28;90736;-34
2022/03/28 08:53:39;;;;;;;12.63;8.55;;;5.90;99.90;;;;;;4979870;28;90753;-36
2022/03/28 08:56:07;;;;;;;11.10;8.40;;;5.90;99.90;;;;;;4980201;28;90164;-35
2022/03/28 08:58:33;;;;;;;7.18;6.47;;;5.90;99.90;;;;;;4980826;28;89158;-33
2022/03/28 09:01:00;;;;;;;10.80;7.57;;;5.90;99.90;;;;;;4980572;28;91326;-38
2022/03/28 09:03:47;;;;;;;7.38;6.57;;;5.90;99.90;;;;;;4980688;28;89800;-35
2022/03/28 09:06:32;;;;;;;9.68;7.80;;;6.10;99.90;;;;;;4979604;28;89093;-34
2022/03/28 09:09:24;;;;;;;10.13;7.95;;;6.00;99.90;;;;;;4980385;28;89070;-36
2022/03/28 09:12:06;;;;;;;11.88;8.25;;;6.00;99.90;;;;;;4980753;28;90399;-35
2022/03/28 09:14:34;;;;;;;8.70;6.72;;;5.90;99.90;;;;;;4979981;28;89731;-34
2022/03/28 09:17:06;;;;;;;9.55;7.22;;;6.00;99.90;;;;;;4980339;28;89100;-34
2022/03/28 09:19:52;;;;;;;8.40;7.00;;;6.20;99.90;;;;;;4979163;28;92383;-34
2022/03/28 09:22:26;;;;;;;8.57;6.85;;;6.40;99.90;;;;;;4979930;28;91244;-33
2022/03/28 09:24:58;;;;;;;8.50;7.35;;;6.40;99.90;;;;;;4979583;28;89981;-34
2022/03/28 09:27:29;;;;;;;9.85;7.40;;;6.40;99.90;;;;;;4979698;28;89151;-35
2022/03/28 09:30:06;;;;;;;10.10;7.88;;;6.50;99.90;;;;;;4979638;28;87502;-36
2022/03/28 09:32:37;;;;;;;10.07;7.57;;;6.50;99.90;;;;;;4979600;28;91449;-34
2022/03/28 09:35:04;;;;;;;10.45;8.50;;;6.30;99.90;;;;;;4980159;28;89403;-37
2022/03/28 09:37:30;;;;;;;11.53;7.90;;;6.20;99.90;;;;;;4979980;28;89436;-33
2022/03/28 09:39:57;;;;;;;8.88;6.70;;;6.10;99.90;;;;;;4978890;28;89583;-34
2022/03/28 09:42:23;;;;;;;28.20;9.93;;;6.30;99.90;;;;;;4979126;28;91681;-37
2022/03/28 09:44:51;;;;;;;7.75;6.85;;;6.40;99.90;;;;;;4979092;28;89832;-33
2022/03/28 09:47:22;;;;;;;8.32;7.38;;;6.60;99.90;;;;;;4979738;28;90562;-34
2022/03/28 09:49:52;;;;;;;8.52;7.57;;;6.70;99.90;;;;;;4979226;28;89505;-39
2022/03/28 09:52:21;;;;;;;9.15;7.35;;;6.50;99.90;;;;;;4978743;28;89200;-38
2022/03/28 09:54:55;;;;;;;7.57;6.50;;;6.70;99.90;;;;;;4979189;28;90378;-36
2022/03/28 09:57:26;;;;;;;6.68;5.65;;;6.80;99.90;;;;;;4979359;28;91106;-35
2022/03/28 09:59:53;;;;;;;7.50;6.70;;;6.70;99.90;;;;;;4980037;28;88711;-34
2022/03/28 10:02:25;;;;;;;8.33;6.70;;;6.70;99.90;;;;;;4979441;28;90110;-38
2022/03/28 10:04:53;;;;;;;12.63;8.00;;;6.90;99.90;;;;;;4979304;28;89925;-35
2022/03/28 10:07:20;;;;;;;10.63;7.60;;;7.00;99.90;;;;;;4979032;28;89112;-36
2022/03/28 10:09:47;;;;;;;7.65;6.90;;;7.20;99.90;;;;;;4978131;28;89069;-34
2022/03/28 10:12:13;;;;;;;9.43;7.35;;;7.30;99.90;;;;;;4979760;28;90411;-33
2022/03/28 10:14:39;;;;;;;9.00;7.53;;;7.00;99.90;;;;;;4978595;28;89428;-35
2022/03/28 10:17:06;;;;;;;11.77;8.35;;;7.10;99.90;;;;;;4978971;28;89215;-35
2022/03/28 10:19:34;;;;;;;9.98;7.55;;;7.30;99.90;;;;;;4979496;28;88200;-35
2022/03/28 10:22:03;;;;;;;13.20;8.88;;;7.20;99.90;;;;;;4979171;28;89554;-33
2022/03/28 10:24:30;;;;;;;11.13;8.75;;;7.20;99.90;;;;;;4979802;28;89590;-32
2022/03/28 10:26:58;;;;;;;9.90;8.70;;;7.40;99.90;;;;;;4978555;28;89043;-35
2022/03/28 10:29:36;;;;;;;13.20;9.30;;;7.60;99.90;;;;;;4978441;28;88263;-35
2022/03/28 10:32:06;;;;;;;;;;;7.50;99.90;;;;;;4979036;28;90072;-37
2022/03/28 10:34:52;;;;;;;10.35;9.25;;;7.50;99.90;;;;;;4980027;28;92042;-35
2022/03/28 10:37:33;;;;;;;11.55;10.13;;;7.60;99.90;;;;;;4979194;28;90616;-37
2022/03/28 10:40:19;;;;;;;11.85;9.32;;;7.60;99.90;;;;;;4977799;28;89446;-38
2022/03/28 10:42:52;;;;;;;16.83;9.27;;;7.60;99.90;;;;;;4979080;28;90092;-34
2022/03/28 10:45:19;;;;;;;11.25;8.70;;;7.70;99.90;;;;;;4978499;28;89720;-35
2022/03/28 10:48:01;;;;;;;13.75;8.43;;;7.80;99.90;;;;;;4978780;28;89444;-35
2022/03/28 10:50:30;;;;;;;11.88;8.60;;;7.90;99.90;;;;;;4978090;28;90243;-37
2022/03/28 10:53:07;;;;;;;9.88;9.00;;;7.60;99.90;;;;;;4978028;28;90082;-36
2022/03/28 10:55:43;;;;;;;12.23;9.97;;;8.00;99.90;;;;;;4978478;28;89633;-35
2022/03/28 10:58:16;;;;;;;14.75;10.05;;;7.90;99.90;;;;;;4978330;28;89533;-36
2022/03/28 11:01:13;;;;;;;14.32;10.55;;;8.20;99.90;;;;;;4977405;28;88778;-34
2022/03/28 11:03:47;;;;;;;12.65;9.80;;;8.70;99.90;;;;;;4978372;28;90367;-34
2022/03/28 11:06:15;;;;;;;12.32;10.50;;;8.80;99.90;;;;;;4940356;27;89605;-34
2022/03/28 11:09:01;;;;;;;12.52;9.73;;;8.40;99.90;;;;;;4961452;28;89598;-34
2022/03/28 11:11:32;;;;;;;13.05;9.68;;;8.40;99.90;;;;;;4976058;28;88838;-38
2022/03/28 11:14:08;;;;;;;18.63;16.67;;;8.50;99.90;;;;;;4977832;28;89847;-33
2022/03/28 11:16:43;;;;;;;13.75;9.30;;;8.20;99.90;;;;;;4977697;28;89579;-40
2022/03/28 11:19:21;;;;;;;14.20;12.68;;;7.80;99.90;;;;;;4976942;28;89887;-37
2022/03/28 11:22:11;;;;;;;13.85;10.88;;;8.30;99.90;;;;;;4976400;28;87659;-37
2022/03/28 11:24:43;;;;;;;14.82;11.68;;;8.40;99.90;;;;;;4976622;28;91149;-35
2022/03/28 11:27:09;;;;;;;12.38;10.18;;;8.80;99.90;;;;;;4977063;28;90544;-36
2022/03/28 11:29:35;;;;;;;14.82;10.75;;;8.90;99.90;;;;;;4976455;28;90521;-35
2022/03/28 11:32:08;;;;;;;13.63;10.90;;;9.50;99.90;;;;;;4977157;28;88027;-36
2022/03/28 11:34:34;;;;;;;15.98;10.98;;;9.40;99.90;;;;;;4976909;28;90339;-38
2022/03/28 11:37:01;;;;;;;14.23;11.77;;;8.70;99.90;;;;;;4977073;28;90702;-33
2022/03/28 11:39:27;;;;;;;13.50;11.05;;;8.80;99.90;;;;;;4977582;28;89309;-34
2022/03/28 11:41:54;;;;;;;13.75;11.52;;;9.10;99.90;;;;;;4976661;28;89168;-37
2022/03/28 11:44:19;;;;;;;14.52;11.52;;;9.10;99.90;;;;;;4976854;28;90356;-37
2022/03/28 11:46:54;;;;;;;17.38;11.02;;;9.60;99.90;;;;;;4976530;28;89779;-36
2022/03/28 11:49:20;;;;;;;14.57;11.18;;;9.80;99.90;;;;;;4975944;28;89927;-35
2022/03/28 11:51:48;;;;;;;13.95;10.68;;;9.60;99.90;;;;;;4958924;28;89236;-37
2022/03/28 11:54:18;;;;;;;15.25;12.02;;;9.50;99.90;;;;;;4976364;28;90371;-35
2022/03/28 11:59:31;;;;;;;12.73;10.52;;;9.00;99.90;;;;;;4976269;28;90425;-34
2022/03/28 12:01:58;;;;;;;13.05;10.80;;;9.70;99.90;;;;;;4976314;28;89204;-34
2022/03/28 12:04:23;;;;;;;21.58;14.23;;;10.40;99.90;;;;;;4976680;28;90982;-34
2022/03/28 12:06:51;;;;;;;16.95;12.15;;;10.80;99.90;;;;;;4975316;28;89961;-37
2022/03/28 12:09:18;;;;;;;14.13;12.15;;;10.00;99.90;;;;;;4976302;28;89930;-39
2022/03/28 12:11:48;;;;;;;14.90;12.95;;;9.50;99.90;;;;;;4976437;28;88942;-34
2022/03/28 12:14:15;;;;;;;15.20;12.57;;;10.10;99.90;;;;;;4976670;28;90423;-35
2022/03/28 12:16:49;;;;;;;16.90;12.15;;;10.20;99.90;;;;;;4975320;28;92161;-36
2022/03/28 12:19:26;;;;;;;14.48;11.75;;;10.00;99.90;;;;;;5016448;22;91149;-38
2022/03/28 12:21:54;;;;;;;17.83;12.90;;;9.70;99.90;;;;;;4996323;28;87617;-37
2022/03/28 12:24:21;;;;;;;16.60;14.02;;;10.20;99.90;;;;;;4996157;28;90458;-34
2022/03/28 12:26:50;;;;;;;25.30;12.20;;;10.10;99.90;;;;;;4995403;28;89554;-37
2022/03/28 12:29:16;;;;;;;;;;;10.30;99.90;;;;;;4996547;28;89529;-35
2022/03/28 12:31:46;;;;;;;16.25;13.70;;;10.00;99.90;;;;;;4998312;28;87651;-35
2022/03/28 12:34:13;;;;;;;13.48;12.07;;;10.20;99.90;;;;;;4996401;28;90826;-36
2022/03/28 12:36:39;;;;;;;16.10;13.20;;;10.30;99.90;;;;;;4995955;28;89352;-34
2022/03/28 12:39:09;;;;;;;15.85;12.60;;;10.20;99.90;;;;;;4996171;28;88872;-34
2022/03/28 12:41:48;;;;;;;17.52;13.02;;;10.50;99.90;;;;;;4995267;28;88883;-38
2022/03/28 12:44:20;;;;;;;19.85;12.43;;;10.70;99.90;;;;;;4995508;28;90165;-33
2022/03/28 12:46:45;;;;;;;16.77;13.02;;;10.60;99.90;;;;;;4995342;28;90597;-34
2022/03/28 12:49:16;;;;;;;15.95;13.75;;;10.70;99.90;;;;;;4995729;28;89448;-36